Main page
METAR-TAF:

METAR-TAF

Airports :

Orange-Caritat Air Base

Orange, France

latitude: 44-08N, longitude: 004-50E, elevation: 60 m

Current weather observation

The report was made 24 minutes ago, at 23:00 UTC
Wind 12 kt from the North/Northwest
Temperature 26°C
Humidity 51%
Pressure 1015 hPa
Visibility 10 km or more
no clouds below 1500 m and no cumulonimbus

METAR: LFMO 052300Z AUTO 33012KT CAVOK 26/15 Q1015 BECMG 35015G25KT

Time: 01:24 (23:24 UTC)

Forecast

The report was made 3 hours and 24 minutes ago, at 20:00 UTC
Forecast valid from 05 at 21 UTC to 06 at 21 UTC
Wind 15 kt from the North with gusts up to 25 kt
Visibility 10 km or more
no clouds below 1500 m and no cumulonimbus
Temporary
from 06 at 07 UTC to 06 at 18 UTC
Wind 20 kt from the North with gusts up to 35 kt

TAF: LFMO 052000Z 0521/0621 35015G25KT CAVOK TEMPO 0607/0618 35020G35KT

Weather observations and forecasts of more than 4000 airports (METAR and TAF reports).

The available stations are represented by yellow and red dots on the map.

Hover mouse over dot to see the name of the station.

Then click to see weather observations and forecasts.

To change the map : click on the green buttons with a black cross to zoom in, on the green button with a dash to zoom out, or on the green arrows for adjacent maps.


METAR-TAF: